sensor_id;sensor_type;location;lat;lon;timestamp;P1;durP1;ratioP1;P2;durP2;ratioP2
78197;SDS011;67472;51.554;7.812;2023-07-09T00:00:01;7.25;;;5.05;;
78197;SDS011;67472;51.554;7.812;2023-07-09T00:02:54;8.05;;;5.82;;
78197;SDS011;67472;51.554;7.812;2023-07-09T00:05:44;7.15;;;4.93;;
78197;SDS011;67472;51.554;7.812;2023-07-09T00:08:34;10.18;;;4.90;;
78197;SDS011;67472;51.554;7.812;2023-07-09T00:11:22;10.15;;;4.90;;
78197;SDS011;67472;51.554;7.812;2023-07-09T00:14:08;8.23;;;4.90;;
78197;SDS011;67472;51.554;7.812;2023-07-09T00:16:56;7.80;;;5.32;;
78197;SDS011;67472;51.554;7.812;2023-07-09T00:19:43;8.45;;;5.28;;
78197;SDS011;67472;51.554;7.812;2023-07-09T00:22:29;7.03;;;5.05;;
78197;SDS011;67472;51.554;7.812;2023-07-09T00:25:17;7.57;;;5.35;;
78197;SDS011;67472;51.554;7.812;2023-07-09T00:28:04;11.77;;;5.72;;
78197;SDS011;67472;51.554;7.812;2023-07-09T00:30:51;9.48;;;5.40;;
78197;SDS011;67472;51.554;7.812;2023-07-09T00:33:39;11.48;;;4.88;;
78197;SDS011;67472;51.554;7.812;2023-07-09T00:36:27;9.15;;;5.10;;
78197;SDS011;67472;51.554;7.812;2023-07-09T00:39:17;7.78;;;4.85;;
78197;SDS011;67472;51.554;7.812;2023-07-09T00:42:09;7.90;;;5.68;;
78197;SDS011;67472;51.554;7.812;2023-07-09T00:45:04;6.72;;;4.50;;
78197;SDS011;67472;51.554;7.812;2023-07-09T00:48:04;9.30;;;5.55;;
78197;SDS011;67472;51.554;7.812;2023-07-09T00:50:54;7.55;;;4.85;;
78197;SDS011;67472;51.554;7.812;2023-07-09T00:53:42;7.78;;;5.10;;
78197;SDS011;67472;51.554;7.812;2023-07-09T00:56:31;12.63;;;6.18;;
78197;SDS011;67472;51.554;7.812;2023-07-09T00:59:25;7.60;;;5.15;;
78197;SDS011;67472;51.554;7.812;2023-07-09T01:02:17;9.07;;;5.03;;
78197;SDS011;67472;51.554;7.812;2023-07-09T01:05:12;8.65;;;5.85;;
78197;SDS011;67472;51.554;7.812;2023-07-09T01:08:05;9.38;;;5.88;;
78197;SDS011;67472;51.554;7.812;2023-07-09T01:10:53;10.95;;;6.13;;
78197;SDS011;67472;51.554;7.812;2023-07-09T01:13:40;10.13;;;6.13;;
78197;SDS011;67472;51.554;7.812;2023-07-09T01:16:34;9.10;;;5.45;;
78197;SDS011;67472;51.554;7.812;2023-07-09T01:19:25;7.47;;;5.93;;
78197;SDS011;67472;51.554;7.812;2023-07-09T01:22:19;7.50;;;5.03;;
78197;SDS011;67472;51.554;7.812;2023-07-09T01:25:08;9.10;;;5.65;;
78197;SDS011;67472;51.554;7.812;2023-07-09T01:27:56;8.93;;;5.03;;
78197;SDS011;67472;51.554;7.812;2023-07-09T01:30:43;9.52;;;5.40;;
78197;SDS011;67472;51.554;7.812;2023-07-09T01:33:30;10.38;;;6.05;;
78197;SDS011;67472;51.554;7.812;2023-07-09T01:36:17;10.88;;;6.15;;
78197;SDS011;67472;51.554;7.812;2023-07-09T01:39:08;7.50;;;5.13;;
78197;SDS011;67472;51.554;7.812;2023-07-09T01:41:55;10.07;;;6.18;;
78197;SDS011;67472;51.554;7.812;2023-07-09T01:44:41;9.65;;;5.85;;
78197;SDS011;67472;51.554;7.812;2023-07-09T01:47:29;10.45;;;6.65;;
78197;SDS011;67472;51.554;7.812;2023-07-09T01:50:18;12.02;;;5.78;;
78197;SDS011;67472;51.554;7.812;2023-07-09T01:53:04;9.02;;;6.22;;
78197;SDS011;67472;51.554;7.812;2023-07-09T01:56:00;10.48;;;6.43;;
78197;SDS011;67472;51.554;7.812;2023-07-09T01:58:53;9.65;;;6.30;;
78197;SDS011;67472;51.554;7.812;2023-07-09T02:01:46;11.00;;;6.60;;
78197;SDS011;67472;51.554;7.812;2023-07-09T02:04:42;10.60;;;5.68;;
78197;SDS011;67472;51.554;7.812;2023-07-09T02:07:29;12.55;;;6.70;;
78197;SDS011;67472;51.554;7.812;2023-07-09T02:10:16;8.93;;;5.72;;
78197;SDS011;67472;51.554;7.812;2023-07-09T02:13:13;12.27;;;6.53;;
78197;SDS011;67472;51.554;7.812;2023-07-09T02:15:59;10.07;;;5.97;;
78197;SDS011;67472;51.554;7.812;2023-07-09T02:18:52;8.38;;;5.93;;
78197;SDS011;67472;51.554;7.812;2023-07-09T02:21:40;11.40;;;6.50;;
78197;SDS011;67472;51.554;7.812;2023-07-09T02:24:34;9.63;;;5.90;;
78197;SDS011;67472;51.554;7.812;2023-07-09T02:27:21;9.32;;;5.78;;
78197;SDS011;67472;51.554;7.812;2023-07-09T02:30:10;15.60;;;5.60;;
78197;SDS011;67472;51.554;7.812;2023-07-09T02:32:56;11.15;;;5.47;;
78197;SDS011;67472;51.554;7.812;2023-07-09T02:35:46;10.52;;;5.32;;
78197;SDS011;67472;51.554;7.812;2023-07-09T02:38:33;11.93;;;6.03;;
78197;SDS011;67472;51.554;7.812;2023-07-09T02:41:19;13.13;;;6.57;;
78197;SDS011;67472;51.554;7.812;2023-07-09T02:44:13;8.65;;;5.93;;
78197;SDS011;67472;51.554;7.812;2023-07-09T02:47:02;9.07;;;6.68;;
78197;SDS011;67472;51.554;7.812;2023-07-09T02:49:56;11.32;;;6.10;;
78197;SDS011;67472;51.554;7.812;2023-07-09T02:52:43;8.75;;;5.63;;
78197;SDS011;67472;51.554;7.812;2023-07-09T02:55:32;9.75;;;5.55;;
78197;SDS011;67472;51.554;7.812;2023-07-09T02:58:21;9.88;;;5.63;;
78197;SDS011;67472;51.554;7.812;2023-07-09T03:01:16;9.57;;;5.63;;
78197;SDS011;67472;51.554;7.812;2023-07-09T03:04:09;11.48;;;5.45;;
78197;SDS011;67472;51.554;7.812;2023-07-09T03:06:59;17.13;;;5.10;;
78197;SDS011;67472;51.554;7.812;2023-07-09T03:09:48;10.18;;;5.90;;
78197;SDS011;67472;51.554;7.812;2023-07-09T03:12:34;7.93;;;5.43;;
78197;SDS011;67472;51.554;7.812;2023-07-09T03:15:21;15.90;;;6.20;;
78197;SDS011;67472;51.554;7.812;2023-07-09T03:18:12;12.13;;;6.13;;
78197;SDS011;67472;51.554;7.812;2023-07-09T03:21:03;15.13;;;6.43;;
78197;SDS011;67472;51.554;7.812;2023-07-09T03:23:50;9.73;;;6.43;;
78197;SDS011;67472;51.554;7.812;2023-07-09T03:26:40;8.70;;;6.22;;
78197;SDS011;67472;51.554;7.812;2023-07-09T03:29:27;12.25;;;6.43;;
78197;SDS011;67472;51.554;7.812;2023-07-09T03:32:17;11.48;;;7.20;;
78197;SDS011;67472;51.554;7.812;2023-07-09T03:35:05;20.45;;;7.53;;
78197;SDS011;67472;51.554;7.812;2023-07-09T03:37:55;8.57;;;5.70;;
78197;SDS011;67472;51.554;7.812;2023-07-09T03:40:49;8.00;;;5.47;;
78197;SDS011;67472;51.554;7.812;2023-07-09T03:43:38;9.80;;;6.45;;
78197;SDS011;67472;51.554;7.812;2023-07-09T03:46:24;7.05;;;5.53;;
78197;SDS011;67472;51.554;7.812;2023-07-09T03:49:10;8.65;;;6.20;;
78197;SDS011;67472;51.554;7.812;2023-07-09T03:51:56;11.55;;;5.22;;
78197;SDS011;67472;51.554;7.812;2023-07-09T03:54:45;10.98;;;5.78;;
78197;SDS011;67472;51.554;7.812;2023-07-09T03:57:32;10.35;;;6.57;;
78197;SDS011;67472;51.554;7.812;2023-07-09T04:00:21;10.25;;;6.70;;
78197;SDS011;67472;51.554;7.812;2023-07-09T04:03:11;13.48;;;5.47;;
78197;SDS011;67472;51.554;7.812;2023-07-09T04:06:01;19.08;;;7.10;;
78197;SDS011;67472;51.554;7.812;2023-07-09T04:08:51;8.48;;;5.72;;
78197;SDS011;67472;51.554;7.812;2023-07-09T04:11:43;10.35;;;6.57;;
78197;SDS011;67472;51.554;7.812;2023-07-09T04:14:30;10.65;;;5.80;;
78197;SDS011;67472;51.554;7.812;2023-07-09T04:17:17;14.55;;;5.88;;
78197;SDS011;67472;51.554;7.812;2023-07-09T04:20:05;16.52;;;5.93;;
78197;SDS011;67472;51.554;7.812;2023-07-09T04:22:55;10.85;;;5.63;;
78197;SDS011;67472;51.554;7.812;2023-07-09T04:25:41;14.20;;;6.40;;
78197;SDS011;67472;51.554;7.812;2023-07-09T04:28:32;11.15;;;6.50;;
78197;SDS011;67472;51.554;7.812;2023-07-09T04:31:20;9.95;;;6.47;;
78197;SDS011;67472;51.554;7.812;2023-07-09T04:34:07;10.82;;;6.00;;
78197;SDS011;67472;51.554;7.812;2023-07-09T04:36:54;15.00;;;7.22;;
78197;SDS011;67472;51.554;7.812;2023-07-09T04:39:41;13.40;;;6.55;;
78197;SDS011;67472;51.554;7.812;2023-07-09T04:42:27;10.73;;;5.22;;
78197;SDS011;67472;51.554;7.812;2023-07-09T04:45:15;8.60;;;5.47;;
78197;SDS011;67472;51.554;7.812;2023-07-09T04:48:01;8.95;;;5.65;;
78197;SDS011;67472;51.554;7.812;2023-07-09T04:50:48;11.10;;;6.00;;
78197;SDS011;67472;51.554;7.812;2023-07-09T04:53:36;8.07;;;5.63;;
78197;SDS011;67472;51.554;7.812;2023-07-09T04:56:25;11.32;;;5.38;;
78197;SDS011;67472;51.554;7.812;2023-07-09T04:59:17;10.20;;;5.82;;
78197;SDS011;67472;51.554;7.812;2023-07-09T05:02:05;10.45;;;5.68;;
78197;SDS011;67472;51.554;7.812;2023-07-09T05:04:52;7.00;;;5.35;;
78197;SDS011;67472;51.554;7.812;2023-07-09T05:07:40;15.55;;;6.05;;
78197;SDS011;67472;51.554;7.812;2023-07-09T05:10:29;12.90;;;5.65;;
78197;SDS011;67472;51.554;7.812;2023-07-09T05:13:18;13.57;;;6.35;;
78197;SDS011;67472;51.554;7.812;2023-07-09T05:16:05;10.63;;;6.10;;
78197;SDS011;67472;51.554;7.812;2023-07-09T05:18:53;8.60;;;5.35;;
78197;SDS011;67472;51.554;7.812;2023-07-09T05:21:39;12.85;;;5.13;;
78197;SDS011;67472;51.554;7.812;2023-07-09T05:24:25;12.98;;;4.95;;
78197;SDS011;67472;51.554;7.812;2023-07-09T05:27:14;8.27;;;5.15;;
78197;SDS011;67472;51.554;7.812;2023-07-09T05:30:02;10.52;;;5.07;;
78197;SDS011;67472;51.554;7.812;2023-07-09T05:32:49;13.52;;;5.15;;
78197;SDS011;67472;51.554;7.812;2023-07-09T05:35:40;10.32;;;5.13;;
78197;SDS011;67472;51.554;7.812;2023-07-09T05:38:29;9.52;;;5.10;;
78197;SDS011;67472;51.554;7.812;2023-07-09T05:41:17;11.95;;;5.43;;
78197;SDS011;67472;51.554;7.812;2023-07-09T05:44:04;10.05;;;4.82;;
78197;SDS011;67472;51.554;7.812;2023-07-09T05:46:52;7.70;;;5.22;;
78197;SDS011;67472;51.554;7.812;2023-07-09T05:49:38;9.77;;;4.97;;
78197;SDS011;67472;51.554;7.812;2023-07-09T05:52:27;6.93;;;4.38;;
78197;SDS011;67472;51.554;7.812;2023-07-09T05:55:14;6.93;;;5.32;;
78197;SDS011;67472;51.554;7.812;2023-07-09T05:58:00;9.60;;;4.68;;
78197;SDS011;67472;51.554;7.812;2023-07-09T06:00:49;6.97;;;5.10;;
78197;SDS011;67472;51.554;7.812;2023-07-09T06:03:38;5.53;;;4.75;;
78197;SDS011;67472;51.554;7.812;2023-07-09T06:06:25;8.05;;;4.95;;
78197;SDS011;67472;51.554;7.812;2023-07-09T06:09:13;9.73;;;4.90;;
78197;SDS011;67472;51.554;7.812;2023-07-09T06:12:03;7.72;;;5.28;;
78197;SDS011;67472;51.554;7.812;2023-07-09T06:14:51;9.93;;;4.90;;
78197;SDS011;67472;51.554;7.812;2023-07-09T06:17:38;7.03;;;4.90;;
78197;SDS011;67472;51.554;7.812;2023-07-09T06:20:24;7.25;;;5.10;;
78197;SDS011;67472;51.554;7.812;2023-07-09T06:23:10;8.30;;;5.25;;
78197;SDS011;67472;51.554;7.812;2023-07-09T06:25:59;8.88;;;5.15;;
78197;SDS011;67472;51.554;7.812;2023-07-09T06:28:46;7.90;;;5.63;;
78197;SDS011;67472;51.554;7.812;2023-07-09T06:31:33;7.00;;;4.32;;
78197;SDS011;67472;51.554;7.812;2023-07-09T06:34:23;7.82;;;5.13;;
78197;SDS011;67472;51.554;7.812;2023-07-09T06:37:10;10.13;;;4.65;;
78197;SDS011;67472;51.554;7.812;2023-07-09T06:39:56;9.68;;;5.55;;
78197;SDS011;67472;51.554;7.812;2023-07-09T06:42:44;9.20;;;5.38;;
78197;SDS011;67472;51.554;7.812;2023-07-09T06:45:47;6.82;;;4.68;;
78197;SDS011;67472;51.554;7.812;2023-07-09T06:48:37;8.30;;;4.60;;
78197;SDS011;67472;51.554;7.812;2023-07-09T06:51:25;8.32;;;4.45;;
78197;SDS011;67472;51.554;7.812;2023-07-09T06:54:12;6.10;;;4.50;;
78197;SDS011;67472;51.554;7.812;2023-07-09T06:57:07;8.15;;;5.00;;
78197;SDS011;67472;51.554;7.812;2023-07-09T06:59:55;6.68;;;4.20;;
78197;SDS011;67472;51.554;7.812;2023-07-09T07:02:41;5.38;;;4.82;;
78197;SDS011;67472;51.554;7.812;2023-07-09T07:05:29;6.82;;;5.47;;
78197;SDS011;67472;51.554;7.812;2023-07-09T07:08:19;9.52;;;5.50;;
78197;SDS011;67472;51.554;7.812;2023-07-09T07:11:10;11.00;;;4.78;;
78197;SDS011;67472;51.554;7.812;2023-07-09T07:13:57;5.20;;;4.53;;
78197;SDS011;67472;51.554;7.812;2023-07-09T07:16:45;6.38;;;4.13;;
78197;SDS011;67472;51.554;7.812;2023-07-09T07:19:34;10.23;;;5.05;;
78197;SDS011;67472;51.554;7.812;2023-07-09T07:22:20;11.60;;;5.38;;
78197;SDS011;67472;51.554;7.812;2023-07-09T07:25:13;8.85;;;4.38;;
78197;SDS011;67472;51.554;7.812;2023-07-09T07:28:03;6.13;;;4.85;;
78197;SDS011;67472;51.554;7.812;2023-07-09T07:30:57;7.13;;;4.75;;
78197;SDS011;67472;51.554;7.812;2023-07-09T07:33:54;8.27;;;4.75;;
78197;SDS011;67472;51.554;7.812;2023-07-09T07:36:42;5.78;;;4.22;;
78197;SDS011;67472;51.554;7.812;2023-07-09T07:39:29;16.05;;;5.18;;
78197;SDS011;67472;51.554;7.812;2023-07-09T07:42:22;9.43;;;5.00;;
78197;SDS011;67472;51.554;7.812;2023-07-09T07:45:12;9.15;;;5.03;;
78197;SDS011;67472;51.554;7.812;2023-07-09T07:47:59;17.25;;;5.40;;
78197;SDS011;67472;51.554;7.812;2023-07-09T07:50:47;9.70;;;5.05;;
78197;SDS011;67472;51.554;7.812;2023-07-09T07:53:34;9.07;;;5.00;;
78197;SDS011;67472;51.554;7.812;2023-07-09T07:56:23;10.23;;;5.15;;
78197;SDS011;67472;51.554;7.812;2023-07-09T07:59:10;6.38;;;4.82;;
78197;SDS011;67472;51.554;7.812;2023-07-09T08:01:56;8.18;;;5.20;;
78197;SDS011;67472;51.554;7.812;2023-07-09T08:04:44;9.00;;;5.47;;
78197;SDS011;67472;51.554;7.812;2023-07-09T08:07:31;6.70;;;4.82;;
78197;SDS011;67472;51.554;7.812;2023-07-09T08:10:19;6.82;;;4.82;;
78197;SDS011;67472;51.554;7.812;2023-07-09T08:13:05;11.50;;;5.93;;
78197;SDS011;67472;51.554;7.812;2023-07-09T08:15:53;10.65;;;4.88;;
78197;SDS011;67472;51.554;7.812;2023-07-09T08:18:39;8.60;;;5.30;;
78197;SDS011;67472;51.554;7.812;2023-07-09T08:21:25;8.60;;;4.63;;
78197;SDS011;67472;51.554;7.812;2023-07-09T08:24:18;8.18;;;4.70;;
78197;SDS011;67472;51.554;7.812;2023-07-09T08:27:05;11.75;;;5.53;;
78197;SDS011;67472;51.554;7.812;2023-07-09T08:29:52;9.82;;;4.95;;
78197;SDS011;67472;51.554;7.812;2023-07-09T08:32:40;12.23;;;5.95;;
78197;SDS011;67472;51.554;7.812;2023-07-09T08:35:27;10.15;;;5.63;;
78197;SDS011;67472;51.554;7.812;2023-07-09T08:38:13;8.30;;;5.35;;
78197;SDS011;67472;51.554;7.812;2023-07-09T08:41:09;7.22;;;5.22;;
78197;SDS011;67472;51.554;7.812;2023-07-09T08:44:09;11.65;;;6.18;;
78197;SDS011;67472;51.554;7.812;2023-07-09T08:47:11;10.43;;;5.70;;
78197;SDS011;67472;51.554;7.812;2023-07-09T08:50:04;6.15;;;4.65;;
78197;SDS011;67472;51.554;7.812;2023-07-09T08:52:55;8.57;;;5.45;;
78197;SDS011;67472;51.554;7.812;2023-07-09T08:55:46;9.10;;;5.15;;
78197;SDS011;67472;51.554;7.812;2023-07-09T08:58:37;10.43;;;5.35;;
78197;SDS011;67472;51.554;7.812;2023-07-09T09:01:24;9.70;;;5.70;;
78197;SDS011;67472;51.554;7.812;2023-07-09T09:04:19;11.85;;;5.65;;
78197;SDS011;67472;51.554;7.812;2023-07-09T09:07:13;7.50;;;4.65;;
78197;SDS011;67472;51.554;7.812;2023-07-09T09:10:14;7.55;;;5.20;;
78197;SDS011;67472;51.554;7.812;2023-07-09T09:13:08;11.63;;;6.57;;
78197;SDS011;67472;51.554;7.812;2023-07-09T09:16:00;9.13;;;5.68;;
78197;SDS011;67472;51.554;7.812;2023-07-09T09:18:51;7.13;;;5.22;;
78197;SDS011;67472;51.554;7.812;2023-07-09T09:21:43;13.27;;;6.30;;
78197;SDS011;67472;51.554;7.812;2023-07-09T09:24:30;8.02;;;5.82;;
78197;SDS011;67472;51.554;7.812;2023-07-09T09:27:21;8.80;;;5.05;;
78197;SDS011;67472;51.554;7.812;2023-07-09T09:30:11;8.10;;;5.20;;
78197;SDS011;67472;51.554;7.812;2023-07-09T09:33:01;11.20;;;5.65;;
78197;SDS011;67472;51.554;7.812;2023-07-09T09:36:00;17.23;;;6.55;;
78197;SDS011;67472;51.554;7.812;2023-07-09T09:38:53;7.85;;;4.93;;
78197;SDS011;67472;51.554;7.812;2023-07-09T09:41:44;13.70;;;5.70;;
78197;SDS011;67472;51.554;7.812;2023-07-09T09:44:31;10.55;;;6.05;;
78197;SDS011;67472;51.554;7.812;2023-07-09T09:47:18;15.63;;;6.20;;
78197;SDS011;67472;51.554;7.812;2023-07-09T09:50:16;10.98;;;5.35;;
78197;SDS011;67472;51.554;7.812;2023-07-09T09:53:06;7.93;;;5.13;;
78197;SDS011;67472;51.554;7.812;2023-07-09T09:55:55;9.00;;;5.25;;
78197;SDS011;67472;51.554;7.812;2023-07-09T09:58:46;8.13;;;5.32;;
78197;SDS011;67472;51.554;7.812;2023-07-09T10:01:38;11.27;;;5.55;;
78197;SDS011;67472;51.554;7.812;2023-07-09T10:04:27;9.05;;;5.25;;
78197;SDS011;67472;51.554;7.812;2023-07-09T10:07:21;8.07;;;5.28;;
78197;SDS011;67472;51.554;7.812;2023-07-09T10:10:18;9.32;;;5.60;;
78197;SDS011;67472;51.554;7.812;2023-07-09T10:13:17;12.50;;;4.35;;
78197;SDS011;67472;51.554;7.812;2023-07-09T10:16:17;11.15;;;4.95;;
78197;SDS011;67472;51.554;7.812;2023-07-09T10:19:10;5.50;;;4.40;;
78197;SDS011;67472;51.554;7.812;2023-07-09T10:22:05;9.00;;;4.72;;
78197;SDS011;67472;51.554;7.812;2023-07-09T10:24:59;7.70;;;4.93;;
78197;SDS011;67472;51.554;7.812;2023-07-09T10:27:59;10.65;;;4.55;;
78197;SDS011;67472;51.554;7.812;2023-07-09T10:30:57;10.50;;;4.30;;
78197;SDS011;67472;51.554;7.812;2023-07-09T10:33:55;9.10;;;4.60;;
78197;SDS011;67472;51.554;7.812;2023-07-09T10:36:58;8.50;;;4.70;;
78197;SDS011;67472;51.554;7.812;2023-07-09T10:40:03;7.03;;;4.35;;
78197;SDS011;67472;51.554;7.812;2023-07-09T10:42:59;9.52;;;4.85;;
78197;SDS011;67472;51.554;7.812;2023-07-09T10:45:52;8.43;;;4.20;;
78197;SDS011;67472;51.554;7.812;2023-07-09T10:48:44;7.38;;;4.05;;
78197;SDS011;67472;51.554;7.812;2023-07-09T10:51:37;8.98;;;4.03;;
78197;SDS011;67472;51.554;7.812;2023-07-09T10:54:41;6.55;;;4.47;;
78197;SDS011;67472;51.554;7.812;2023-07-09T10:57:44;6.32;;;4.15;;
78197;SDS011;67472;51.554;7.812;2023-07-09T11:00:37;12.18;;;5.43;;
78197;SDS011;67472;51.554;7.812;2023-07-09T11:03:28;7.15;;;4.13;;
78197;SDS011;67472;51.554;7.812;2023-07-09T11:06:27;7.20;;;4.78;;
78197;SDS011;67472;51.554;7.812;2023-07-09T11:09:21;7.65;;;4.28;;
78197;SDS011;67472;51.554;7.812;2023-07-09T11:12:10;5.25;;;3.90;;
78197;SDS011;67472;51.554;7.812;2023-07-09T11:15:02;6.07;;;4.30;;
78197;SDS011;67472;51.554;7.812;2023-07-09T11:17:54;5.60;;;4.25;;
78197;SDS011;67472;51.554;7.812;2023-07-09T11:20:44;9.13;;;4.15;;
78197;SDS011;67472;51.554;7.812;2023-07-09T11:23:39;7.95;;;4.18;;
78197;SDS011;67472;51.554;7.812;2023-07-09T11:26:32;9.48;;;4.80;;
78197;SDS011;67472;51.554;7.812;2023-07-09T11:29:23;8.75;;;4.72;;
78197;SDS011;67472;51.554;7.812;2023-07-09T11:32:17;8.15;;;4.80;;
78197;SDS011;67472;51.554;7.812;2023-07-09T11:35:06;9.48;;;4.75;;
78197;SDS011;67472;51.554;7.812;2023-07-09T11:37:54;7.03;;;4.20;;
78197;SDS011;67472;51.554;7.812;2023-07-09T11:40:50;6.95;;;4.28;;
78197;SDS011;67472;51.554;7.812;2023-07-09T11:43:46;6.85;;;4.35;;
78197;SDS011;67472;51.554;7.812;2023-07-09T11:46:36;5.75;;;4.10;;
78197;SDS011;67472;51.554;7.812;2023-07-09T11:49:38;6.95;;;4.53;;
78197;SDS011;67472;51.554;7.812;2023-07-09T11:52:33;7.65;;;4.47;;
78197;SDS011;67472;51.554;7.812;2023-07-09T11:55:25;10.20;;;4.95;;
78197;SDS011;67472;51.554;7.812;2023-07-09T11:58:15;6.15;;;4.72;;
78197;SDS011;67472;51.554;7.812;2023-07-09T12:01:09;10.65;;;4.90;;
78197;SDS011;67472;51.554;7.812;2023-07-09T12:04:03;9.57;;;4.60;;
78197;SDS011;67472;51.554;7.812;2023-07-09T12:06:51;6.07;;;4.80;;
78197;SDS011;67472;51.554;7.812;2023-07-09T12:12:48;9.65;;;5.10;;
78197;SDS011;67472;51.554;7.812;2023-07-09T12:15:39;6.82;;;4.70;;
78197;SDS011;67472;51.554;7.812;2023-07-09T12:18:28;7.80;;;4.25;;
78197;SDS011;67472;51.554;7.812;2023-07-09T12:21:15;5.28;;;3.97;;
78197;SDS011;67472;51.554;7.812;2023-07-09T12:24:04;6.70;;;4.30;;
78197;SDS011;67472;51.554;7.812;2023-07-09T12:27:03;7.70;;;4.25;;
78197;SDS011;67472;51.554;7.812;2023-07-09T12:30:12;10.90;;;4.88;;
78197;SDS011;67472;51.554;7.812;2023-07-09T12:33:00;6.18;;;3.92;;
78197;SDS011;67472;51.554;7.812;2023-07-09T12:35:55;11.45;;;4.50;;
78197;SDS011;67472;51.554;7.812;2023-07-09T12:38:44;8.50;;;3.72;;
78197;SDS011;67472;51.554;7.812;2023-07-09T12:41:35;7.03;;;4.07;;
78197;SDS011;67472;51.554;7.812;2023-07-09T12:44:28;9.13;;;4.88;;
78197;SDS011;67472;51.554;7.812;2023-07-09T12:47:18;6.60;;;3.90;;
78197;SDS011;67472;51.554;7.812;2023-07-09T12:50:12;6.30;;;4.90;;
78197;SDS011;67472;51.554;7.812;2023-07-09T12:53:11;12.75;;;4.45;;
78197;SDS011;67472;51.554;7.812;2023-07-09T12:56:07;12.00;;;3.60;;
78197;SDS011;67472;51.554;7.812;2023-07-09T12:58:59;7.30;;;4.20;;
78197;SDS011;67472;51.554;7.812;2023-07-09T13:01:50;8.45;;;4.70;;
78197;SDS011;67472;51.554;7.812;2023-07-09T13:04:40;7.10;;;4.25;;
78197;SDS011;67472;51.554;7.812;2023-07-09T13:07:29;7.00;;;4.05;;
78197;SDS011;67472;51.554;7.812;2023-07-09T13:10:21;5.60;;;3.72;;
78197;SDS011;67472;51.554;7.812;2023-07-09T13:13:11;10.02;;;4.43;;
78197;SDS011;67472;51.554;7.812;2023-07-09T13:16:01;5.80;;;4.30;;
78197;SDS011;67472;51.554;7.812;2023-07-09T13:18:48;8.13;;;4.40;;
78197;SDS011;67472;51.554;7.812;2023-07-09T13:21:34;8.15;;;3.65;;
78197;SDS011;67472;51.554;7.812;2023-07-09T13:24:24;10.20;;;4.60;;
78197;SDS011;67472;51.554;7.812;2023-07-09T13:27:12;8.40;;;4.82;;
78197;SDS011;67472;51.554;7.812;2023-07-09T13:30:01;6.25;;;3.80;;
78197;SDS011;67472;51.554;7.812;2023-07-09T13:32:53;9.82;;;3.88;;
78197;SDS011;67472;51.554;7.812;2023-07-09T13:35:40;11.18;;;4.25;;
78197;SDS011;67472;51.554;7.812;2023-07-09T13:38:28;7.15;;;4.20;;
78197;SDS011;67472;51.554;7.812;2023-07-09T13:41:20;9.35;;;3.45;;
78197;SDS011;67472;51.554;7.812;2023-07-09T13:44:10;5.68;;;4.43;;
78197;SDS011;67472;51.554;7.812;2023-07-09T13:46:58;8.13;;;4.28;;
78197;SDS011;67472;51.554;7.812;2023-07-09T13:49:46;6.97;;;3.92;;
78197;SDS011;67472;51.554;7.812;2023-07-09T13:52:36;7.38;;;3.88;;
78197;SDS011;67472;51.554;7.812;2023-07-09T13:55:23;8.85;;;3.80;;
78197;SDS011;67472;51.554;7.812;2023-07-09T13:58:12;5.38;;;4.00;;
78197;SDS011;67472;51.554;7.812;2023-07-09T14:01:08;6.13;;;3.65;;
78197;SDS011;67472;51.554;7.812;2023-07-09T14:03:59;7.72;;;4.32;;
78197;SDS011;67472;51.554;7.812;2023-07-09T14:06:46;7.70;;;4.18;;
78197;SDS011;67472;51.554;7.812;2023-07-09T14:09:33;5.45;;;3.80;;
78197;SDS011;67472;51.554;7.812;2023-07-09T14:12:21;4.50;;;3.72;;
78197;SDS011;67472;51.554;7.812;2023-07-09T14:15:11;7.97;;;3.83;;
78197;SDS011;67472;51.554;7.812;2023-07-09T14:18:01;9.23;;;4.60;;
78197;SDS011;67472;51.554;7.812;2023-07-09T14:20:48;6.30;;;3.70;;
78197;SDS011;67472;51.554;7.812;2023-07-09T14:23:36;8.43;;;4.00;;
78197;SDS011;67472;51.554;7.812;2023-07-09T14:26:22;11.43;;;4.30;;
78197;SDS011;67472;51.554;7.812;2023-07-09T14:29:09;4.97;;;4.13;;
78197;SDS011;67472;51.554;7.812;2023-07-09T14:31:58;6.28;;;4.13;;
78197;SDS011;67472;51.554;7.812;2023-07-09T14:34:44;7.65;;;4.38;;
78197;SDS011;67472;51.554;7.812;2023-07-09T14:37:30;6.97;;;4.45;;
78197;SDS011;67472;51.554;7.812;2023-07-09T14:40:21;11.02;;;4.55;;
78197;SDS011;67472;51.554;7.812;2023-07-09T14:43:08;6.38;;;4.40;;
78197;SDS011;67472;51.554;7.812;2023-07-09T14:45:55;5.40;;;3.88;;
78197;SDS011;67472;51.554;7.812;2023-07-09T14:48:42;8.15;;;4.72;;
78197;SDS011;67472;51.554;7.812;2023-07-09T14:51:31;6.15;;;4.45;;
78197;SDS011;67472;51.554;7.812;2023-07-09T14:54:22;7.00;;;4.18;;
78197;SDS011;67472;51.554;7.812;2023-07-09T14:57:16;8.18;;;4.63;;
78197;SDS011;67472;51.554;7.812;2023-07-09T15:00:05;9.30;;;4.30;;
78197;SDS011;67472;51.554;7.812;2023-07-09T15:02:54;6.60;;;4.72;;
78197;SDS011;67472;51.554;7.812;2023-07-09T15:05:47;10.68;;;5.20;;
78197;SDS011;67472;51.554;7.812;2023-07-09T15:08:35;6.82;;;4.38;;
78197;SDS011;67472;51.554;7.812;2023-07-09T15:11:22;8.48;;;4.35;;
78197;SDS011;67472;51.554;7.812;2023-07-09T15:14:12;9.48;;;4.63;;
78197;SDS011;67472;51.554;7.812;2023-07-09T15:16:58;8.00;;;5.85;;
78197;SDS011;67472;51.554;7.812;2023-07-09T15:19:48;8.50;;;5.40;;
78197;SDS011;67472;51.554;7.812;2023-07-09T15:22:37;6.50;;;4.65;;
78197;SDS011;67472;51.554;7.812;2023-07-09T15:25:24;15.30;;;5.10;;
78197;SDS011;67472;51.554;7.812;2023-07-09T15:28:12;8.15;;;4.93;;
78197;SDS011;67472;51.554;7.812;2023-07-09T15:31:00;8.85;;;4.45;;
78197;SDS011;67472;51.554;7.812;2023-07-09T15:33:47;7.72;;;4.85;;
78197;SDS011;67472;51.554;7.812;2023-07-09T15:36:33;6.25;;;4.50;;
78197;SDS011;67472;51.554;7.812;2023-07-09T15:39:19;7.82;;;4.63;;
78197;SDS011;67472;51.554;7.812;2023-07-09T15:42:11;12.73;;;5.82;;
78197;SDS011;67472;51.554;7.812;2023-07-09T15:44:59;14.45;;;4.90;;
78197;SDS011;67472;51.554;7.812;2023-07-09T15:47:49;15.20;;;5.38;;
78197;SDS011;67472;51.554;7.812;2023-07-09T15:50:37;13.40;;;4.35;;
78197;SDS011;67472;51.554;7.812;2023-07-09T15:53:24;10.75;;;4.15;;
78197;SDS011;67472;51.554;7.812;2023-07-09T15:56:13;8.70;;;3.28;;
78197;SDS011;67472;51.554;7.812;2023-07-09T15:59:07;9.15;;;3.50;;
78197;SDS011;67472;51.554;7.812;2023-07-09T16:02:10;11.85;;;4.22;;
78197;SDS011;67472;51.554;7.812;2023-07-09T16:05:00;16.75;;;3.67;;
78197;SDS011;67472;51.554;7.812;2023-07-09T16:07:47;7.93;;;4.05;;
78197;SDS011;67472;51.554;7.812;2023-07-09T16:10:33;9.43;;;3.03;;
78197;SDS011;67472;51.554;7.812;2023-07-09T16:13:23;4.55;;;3.28;;
78197;SDS011;67472;51.554;7.812;2023-07-09T16:16:12;7.95;;;3.33;;
78197;SDS011;67472;51.554;7.812;2023-07-09T16:18:59;6.70;;;3.97;;
78197;SDS011;67472;51.554;7.812;2023-07-09T16:21:51;5.50;;;3.08;;
78197;SDS011;67472;51.554;7.812;2023-07-09T16:24:41;3.97;;;3.20;;
78197;SDS011;67472;51.554;7.812;2023-07-09T16:27:29;4.97;;;3.40;;
78197;SDS011;67472;51.554;7.812;2023-07-09T16:30:19;5.35;;;3.75;;
78197;SDS011;67472;51.554;7.812;2023-07-09T16:33:09;4.88;;;3.10;;
78197;SDS011;67472;51.554;7.812;2023-07-09T16:35:56;5.30;;;3.20;;
78197;SDS011;67472;51.554;7.812;2023-07-09T16:38:44;4.13;;;3.00;;
78197;SDS011;67472;51.554;7.812;2023-07-09T16:41:30;4.68;;;3.30;;
78197;SDS011;67472;51.554;7.812;2023-07-09T16:44:17;5.72;;;3.08;;
78197;SDS011;67472;51.554;7.812;2023-07-09T16:47:14;5.22;;;3.58;;
78197;SDS011;67472;51.554;7.812;2023-07-09T16:50:03;4.35;;;3.22;;
78197;SDS011;67472;51.554;7.812;2023-07-09T16:52:50;6.60;;;3.60;;
78197;SDS011;67472;51.554;7.812;2023-07-09T16:55:39;6.82;;;3.20;;
78197;SDS011;67472;51.554;7.812;2023-07-09T16:58:29;9.88;;;3.47;;
78197;SDS011;67472;51.554;7.812;2023-07-09T17:01:22;7.38;;;4.38;;